Time;durP1;ratioP1;P1;durP2;ratioP2;P2;SDS_P1;SDS_P2;PMS_P1;PMS_P2;Temp;Humidity;BMP_temperature;BMP_pressure;BME280_temperature;BME280_humidity;BME280_pressure;Samples;Min_cycle;Max_cycle;Signal;HPM_P1;HPM_P2
2022/12/05 00:01:20;;;;;;;12.07;9.80;;;2.20;99.90;;;;;;5082513;28;21606;-76
2022/12/05 00:03:48;;;;;;;11.90;10.03;;;2.30;99.90;;;;;;5091829;28;20850;-76
2022/12/05 00:06:15;;;;;;;11.83;8.93;;;2.40;99.90;;;;;;5085056;28;20966;-76
2022/12/05 00:08:42;;;;;;;9.73;8.73;;;2.50;99.90;;;;;;5088017;28;20494;-76
2022/12/05 00:11:13;;;;;;;14.10;10.17;;;2.50;99.90;;;;;;5091573;28;20459;-76
2022/12/05 00:13:41;;;;;;;17.27;11.47;;;2.70;99.90;;;;;;5085846;28;20811;-77
2022/12/05 00:16:10;;;;;;;24.77;15.07;;;2.70;99.90;;;;;;5083027;28;20458;-76
2022/12/05 00:18:38;;;;;;;15.70;12.10;;;2.80;99.90;;;;;;5084051;28;20450;-76
2022/12/05 00:21:06;;;;;;;17.60;12.80;;;2.80;99.90;;;;;;5084168;28;20540;-76
2022/12/05 00:23:33;;;;;;;19.70;13.30;;;2.90;99.90;;;;;;5090099;28;20842;-76
2022/12/05 00:26:03;;;;;;;24.50;15.27;;;2.80;99.90;;;;;;5096468;28;20659;-76
2022/12/05 00:28:31;;;;;;;24.57;14.37;;;2.90;99.90;;;;;;5103659;28;20973;-76
2022/12/05 00:30:58;;;;;;;23.03;12.97;;;3.00;99.90;;;;;;5095764;28;20482;-77
2022/12/05 00:33:25;;;;;;;22.63;14.57;;;3.10;99.90;;;;;;5098872;28;20504;-76
2022/12/05 00:35:53;;;;;;;17.53;12.57;;;3.10;99.90;;;;;;5098733;28;20470;-76
2022/12/05 00:38:20;;;;;;;20.40;13.33;;;3.00;99.90;;;;;;5093369;28;20450;-77
2022/12/05 00:40:47;;;;;;;18.83;13.57;;;3.00;99.90;;;;;;5089025;28;20896;-76
2022/12/05 00:43:14;;;;;;;25.27;16.77;;;3.00;99.90;;;;;;5098834;28;20866;-76
2022/12/05 00:45:41;;;;;;;27.17;18.00;;;2.90;99.90;;;;;;5103728;28;20919;-76
2022/12/05 00:48:08;;;;;;;22.27;15.50;;;2.90;99.90;;;;;;5104726;28;20446;-76
2022/12/05 00:50:35;;;;;;;26.03;18.13;;;3.00;99.90;;;;;;5099033;28;20502;-76
2022/12/05 00:53:03;;;;;;;26.10;16.70;;;3.00;99.90;;;;;;5103861;28;20461;-76
2022/12/05 00:55:30;;;;;;;23.43;15.03;;;3.10;99.90;;;;;;5101609;28;20938;-77
2022/12/05 00:57:57;;;;;;;22.87;14.00;;;3.10;99.90;;;;;;5094117;28;21094;-76
2022/12/05 01:00:24;;;;;;;27.10;16.67;;;3.10;99.90;;;;;;5100888;28;20579;-76
2022/12/05 01:02:51;;;;;;;25.67;17.60;;;3.20;99.90;;;;;;5106167;28;20773;-76
2022/12/05 01:05:18;;;;;;;28.50;18.40;;;3.30;99.90;;;;;;5086559;28;20950;-76
2022/12/05 01:07:45;;;;;;;30.50;19.43;;;3.30;99.90;;;;;;5087426;28;20520;-76
2022/12/05 01:10:13;;;;;;;33.07;19.13;;;3.30;99.90;;;;;;5095772;28;20910;-77
2022/12/05 01:12:40;;;;;;;31.60;20.70;;;3.30;99.90;;;;;;5102118;28;20497;-76
2022/12/05 01:15:09;;;;;;;32.37;20.20;;;3.30;99.90;;;;;;5089279;28;20516;-77
2022/12/05 01:17:36;;;;;;;33.23;21.47;;;3.30;99.90;;;;;;5094491;28;20651;-76
2022/12/05 01:20:04;;;;;;;31.47;21.97;;;3.30;99.90;;;;;;5097369;28;20579;-77
2022/12/05 01:22:31;;;;;;;32.30;20.70;;;3.30;99.90;;;;;;5092476;28;20493;-77
2022/12/05 01:24:58;;;;;;;34.93;19.30;;;3.40;99.90;;;;;;5099200;28;20508;-77
2022/12/05 01:27:26;;;;;;;34.13;22.97;;;3.40;99.90;;;;;;5097413;28;20481;-76
2022/12/05 01:29:53;;;;;;;31.87;19.90;;;3.30;99.90;;;;;;5099748;27;20949;-76
2022/12/05 01:32:20;;;;;;;34.93;20.77;;;3.40;99.90;;;;;;5100320;28;20485;-76
2022/12/05 01:34:47;;;;;;;32.20;16.37;;;3.30;99.90;;;;;;5098597;28;20542;-76
2022/12/05 01:37:14;;;;;;;39.37;20.27;;;3.30;99.90;;;;;;5102309;28;20489;-77
2022/12/05 01:39:41;;;;;;;31.53;17.67;;;3.20;99.90;;;;;;5092405;28;20510;-76
2022/12/05 01:42:08;;;;;;;37.30;19.60;;;3.10;99.90;;;;;;5086466;28;20474;-76
2022/12/05 01:45:15;;;;;;;28.53;18.07;;;3.10;99.90;;;;;;5099566;28;21169;-76
2022/12/05 01:47:43;;;;;;;36.27;20.60;;;3.00;99.90;;;;;;5093219;28;20531;-76
2022/12/05 01:50:12;;;;;;;32.70;19.93;;;3.00;99.90;;;;;;5101975;28;20473;-76
2022/12/05 01:52:40;;;;;;;35.90;19.40;;;3.00;99.90;;;;;;5091332;28;20544;-76
2022/12/05 01:55:11;;;;;;;30.27;20.10;;;2.90;99.90;;;;;;5088293;28;20856;-76
2022/12/05 01:57:38;;;;;;;28.20;18.43;;;2.90;99.90;;;;;;5100590;28;20487;-76
2022/12/05 02:00:11;;;;;;;33.47;16.60;;;2.90;99.90;;;;;;5092122;28;20483;-76
2022/12/05 02:02:39;;;;;;;24.53;16.90;;;2.90;99.90;;;;;;5103746;28;20546;-76
2022/12/05 02:05:13;;;;;;;27.50;18.30;;;2.90;99.90;;;;;;5089163;28;20737;-76
2022/12/05 02:07:42;;;;;;;25.40;17.00;;;2.90;99.90;;;;;;5097010;28;20504;-76
2022/12/05 02:10:10;;;;;;;32.47;19.30;;;2.90;99.90;;;;;;5087910;28;20760;-76
2022/12/05 02:12:38;;;;;;;26.30;17.70;;;2.80;99.90;;;;;;5101241;28;20546;-76
2022/12/05 02:15:18;;;;;;;25.17;17.47;;;2.70;99.90;;;;;;5091597;28;20470;-76
2022/12/05 02:17:54;;;;;;;37.93;17.60;;;2.70;99.90;;;;;;5092249;28;20770;-77
2022/12/05 02:20:47;;;;;;;23.63;15.70;;;2.70;99.90;;;;;;5096547;28;20943;-76
2022/12/05 02:23:59;;;;;;;30.30;17.37;;;2.60;99.90;;;;;;5090618;28;20478;-76
2022/12/05 02:26:47;;;;;;;27.50;16.03;;;2.40;99.90;;;;;;5098976;28;21106;-77
2022/12/05 02:29:49;;;;;;;27.43;16.60;;;2.30;99.90;;;;;;5097771;28;20517;-76
2022/12/05 02:32:28;;;;;;;27.83;16.00;;;2.20;99.90;;;;;;5102102;28;20522;-77
2022/12/05 02:35:00;;;;;;;26.43;16.53;;;2.10;99.90;;;;;;5088212;28;20496;-77
2022/12/05 02:37:30;;;;;;;31.67;17.10;;;2.00;99.90;;;;;;5099621;28;20874;-77
2022/12/05 02:40:05;;;;;;;24.17;16.17;;;2.00;99.90;;;;;;5096036;28;20551;-76
2022/12/05 02:42:39;;;;;;;28.33;16.13;;;2.10;99.90;;;;;;5090079;28;20524;-76
2022/12/05 02:45:09;;;;;;;24.60;15.30;;;2.10;99.90;;;;;;5087164;28;20532;-77
2022/12/05 02:47:42;;;;;;;25.13;17.17;;;2.00;99.90;;;;;;5088801;28;20532;-76
2022/12/05 02:50:13;;;;;;;27.23;16.63;;;2.00;99.90;;;;;;5099784;28;20466;-76
2022/12/05 02:52:42;;;;;;;24.03;16.60;;;2.00;99.90;;;;;;5095199;28;20548;-77
2022/12/05 02:55:10;;;;;;;24.67;15.73;;;2.10;99.90;;;;;;5100325;28;20568;-76
2022/12/05 02:57:38;;;;;;;25.00;16.73;;;2.20;99.90;;;;;;5105228;28;20483;-77
2022/12/05 03:00:07;;;;;;;35.07;17.47;;;2.10;99.90;;;;;;5088961;28;20506;-76
2022/12/05 03:02:34;;;;;;;31.70;16.33;;;2.10;99.90;;;;;;5101689;28;20618;-76
2022/12/05 03:05:14;;;;;;;27.03;16.90;;;2.20;99.90;;;;;;5090820;28;20518;-76
2022/12/05 03:07:45;;;;;;;30.33;18.20;;;2.30;99.90;;;;;;5096045;28;20498;-76
2022/12/05 03:10:14;;;;;;;29.10;16.83;;;2.40;99.90;;;;;;5090482;28;20983;-76
2022/12/05 03:12:44;;;;;;;31.77;19.47;;;2.30;99.90;;;;;;5098693;28;20948;-77
2022/12/05 03:15:17;;;;;;;23.70;16.80;;;2.40;99.90;;;;;;5094413;28;20489;-76
2022/12/05 03:17:50;;;;;;;25.70;16.37;;;2.50;99.90;;;;;;5100093;28;20489;-77
2022/12/05 03:20:25;;;;;;;25.97;17.07;;;2.60;99.90;;;;;;5103211;28;20485;-76
2022/12/05 03:22:57;;;;;;;31.67;17.03;;;2.50;99.90;;;;;;5090450;28;20493;-76
2022/12/05 03:25:31;;;;;;;37.00;19.33;;;2.60;99.90;;;;;;5102335;28;21418;-76
2022/12/05 03:28:04;;;;;;;34.80;18.47;;;2.60;99.90;;;;;;5101747;28;20473;-76
2022/12/05 03:30:37;;;;;;;27.40;16.80;;;2.60;99.90;;;;;;5100616;28;20458;-76
2022/12/05 03:33:11;;;;;;;27.07;16.10;;;2.70;99.90;;;;;;5091772;28;20552;-77
2022/12/05 03:35:45;;;;;;;31.00;18.47;;;2.80;99.90;;;;;;5089736;28;20462;-77
2022/12/05 03:38:16;;;;;;;29.00;20.30;;;2.90;99.90;;;;;;5091488;28;20851;-77
2022/12/05 03:40:47;;;;;;;33.27;19.70;;;2.90;99.90;;;;;;5097726;28;20774;-77
2022/12/05 03:43:25;;;;;;;31.57;20.20;;;2.80;99.90;;;;;;5098938;28;20474;-77
2022/12/05 03:45:58;;;;;;;31.00;18.27;;;2.90;99.90;;;;;;5111345;27;20485;-77
2022/12/05 03:48:31;;;;;;;40.80;21.07;;;2.80;99.90;;;;;;5098750;28;20478;-76
2022/12/05 03:51:01;;;;;;;39.43;21.73;;;2.90;99.90;;;;;;5091432;28;20466;-77
2022/12/05 03:53:31;;;;;;;37.90;20.80;;;2.80;99.90;;;;;;5099457;28;20550;-77
2022/12/05 03:56:04;;;;;;;31.13;20.30;;;2.80;99.90;;;;;;5092913;28;20463;-76
2022/12/05 03:58:37;;;;;;;39.17;21.17;;;2.70;99.90;;;;;;5094181;28;20525;-76
2022/12/05 04:01:06;;;;;;;38.77;22.37;;;2.80;99.90;;;;;;5089394;28;20565;-77
2022/12/05 04:03:39;;;;;;;35.47;18.83;;;2.80;99.90;;;;;;5097371;28;20450;-76
2022/12/05 04:06:13;;;;;;;39.13;22.67;;;2.80;99.90;;;;;;5086944;28;20467;-76
2022/12/05 04:08:45;;;;;;;39.87;21.97;;;2.80;99.90;;;;;;5091072;28;20498;-76
2022/12/05 04:11:17;;;;;;;35.60;22.03;;;2.80;99.90;;;;;;5092489;28;20477;-76
2022/12/05 04:13:48;;;;;;;32.50;18.47;;;2.70;99.90;;;;;;5083418;28;20502;-76
2022/12/05 04:19:08;;;;;;;26.30;16.87;;;2.70;99.90;;;;;;5099916;28;20440;-76
2022/12/05 04:21:40;;;;;;;20.40;15.07;;;2.60;99.90;;;;;;5091931;28;20513;-76
2022/12/05 04:27:10;;;;;;;20.77;14.13;;;2.70;99.90;;;;;;5106548;28;20579;-76
2022/12/05 04:29:44;;;;;;;21.00;13.37;;;2.60;99.90;;;;;;5102414;28;20896;-77
2022/12/05 04:32:13;;;;;;;20.97;14.10;;;2.50;99.90;;;;;;5102781;28;20485;-76
2022/12/05 04:34:45;;;;;;;15.40;12.37;;;2.50;99.90;;;;;;5107784;28;20486;-76
2022/12/05 04:37:18;;;;;;;19.60;12.20;;;2.40;99.90;;;;;;5103969;28;20573;-76
2022/12/05 04:39:51;;;;;;;19.27;11.90;;;2.40;99.90;;;;;;5099946;28;20647;-76
2022/12/05 04:42:21;;;;;;;18.20;12.23;;;2.40;99.90;;;;;;5106503;28;20517;-76
2022/12/05 04:44:54;;;;;;;13.57;10.60;;;2.30;99.90;;;;;;5102466;28;20538;-76
2022/12/05 04:47:26;;;;;;;13.57;9.67;;;2.40;99.90;;;;;;5100590;28;20473;-76
2022/12/05 04:49:55;;;;;;;13.73;10.43;;;2.30;99.90;;;;;;5092668;28;20555;-76
2022/12/05 04:52:26;;;;;;;15.07;12.00;;;2.30;99.90;;;;;;5092089;28;20481;-76
2022/12/05 04:55:00;;;;;;;19.80;9.20;;;2.30;99.90;;;;;;5104911;28;20511;-76
2022/12/05 04:57:31;;;;;;;16.70;10.30;;;2.30;99.90;;;;;;5100273;28;20501;-76
2022/12/05 04:59:58;;;;;;;18.33;9.90;;;2.30;99.90;;;;;;5101175;28;20490;-76
2022/12/05 05:02:32;;;;;;;13.10;9.70;;;2.30;99.90;;;;;;5101318;28;20520;-77
2022/12/05 05:05:01;;;;;;;15.73;10.90;;;2.30;99.90;;;;;;5106464;28;20545;-76
2022/12/05 05:07:30;;;;;;;10.80;9.10;;;2.40;99.90;;;;;;5088415;28;20486;-76
2022/12/05 05:09:57;;;;;;;12.40;9.50;;;2.30;99.90;;;;;;5094359;28;20480;-76
2022/12/05 05:12:24;;;;;;;12.27;8.77;;;2.30;99.90;;;;;;5098534;28;20491;-76
2022/12/05 05:14:50;;;;;;;14.13;9.00;;;2.40;99.90;;;;;;5107115;28;20545;-76
2022/12/05 05:17:17;;;;;;;13.47;9.50;;;2.40;99.90;;;;;;5102629;28;20558;-76
2022/12/05 05:19:44;;;;;;;12.83;8.77;;;2.40;99.90;;;;;;5107295;28;20867;-77
2022/12/05 05:22:11;;;;;;;13.10;10.23;;;2.50;99.90;;;;;;5100114;28;20518;-77
2022/12/05 05:24:39;;;;;;;13.50;10.10;;;2.60;99.90;;;;;;5106339;28;20481;-76
2022/12/05 05:27:06;;;;;;;11.03;9.07;;;2.50;99.90;;;;;;5104948;28;20481;-76
2022/12/05 05:29:33;;;;;;;12.30;9.93;;;2.60;99.90;;;;;;5094585;28;20517;-76
2022/12/05 05:32:01;;;;;;;13.50;10.40;;;2.50;99.90;;;;;;5098389;28;20455;-76
2022/12/05 05:34:28;;;;;;;13.53;9.50;;;2.50;99.90;;;;;;5093529;28;20498;-76
2022/12/05 05:36:55;;;;;;;11.17;7.57;;;2.50;99.90;;;;;;5097203;28;20540;-76
2022/12/05 05:39:22;;;;;;;9.87;8.87;;;2.60;99.90;;;;;;5088796;28;20825;-76
2022/12/05 05:41:51;;;;;;;11.33;8.43;;;2.60;99.90;;;;;;5093181;28;20486;-76
2022/12/05 05:44:17;;;;;;;11.20;8.50;;;2.60;99.90;;;;;;5087566;28;20470;-76
2022/12/05 05:46:44;;;;;;;14.37;9.10;;;2.70;99.90;;;;;;5086603;28;20493;-76
2022/12/05 05:49:11;;;;;;;13.60;9.63;;;2.80;99.90;;;;;;5085975;28;21175;-76
2022/12/05 05:51:38;;;;;;;13.43;9.90;;;2.80;99.90;;;;;;5087535;28;20541;-76
2022/12/05 05:54:05;;;;;;;11.67;8.47;;;2.70;99.90;;;;;;5088698;27;20509;-76
2022/12/05 05:56:32;;;;;;;11.13;7.90;;;2.70;99.90;;;;;;5088773;28;20820;-76
2022/12/05 05:59:02;;;;;;;12.90;8.90;;;2.70;99.90;;;;;;5089577;27;20458;-76
2022/12/05 06:01:30;;;;;;;13.03;8.77;;;2.80;99.90;;;;;;5092559;28;20525;-76
2022/12/05 06:03:58;;;;;;;11.17;8.80;;;2.90;99.90;;;;;;5092584;28;20495;-76
2022/12/05 06:06:26;;;;;;;10.10;8.10;;;2.90;99.90;;;;;;5095430;28;20705;-76
2022/12/05 06:08:53;;;;;;;13.73;9.70;;;2.90;99.90;;;;;;5093430;28;20544;-77
2022/12/05 06:11:22;;;;;;;14.33;9.87;;;2.90;99.90;;;;;;5088868;28;20709;-76
2022/12/05 06:13:50;;;;;;;14.97;10.77;;;3.00;99.90;;;;;;5085419;28;20450;-76
2022/12/05 06:16:19;;;;;;;13.13;9.00;;;3.00;99.90;;;;;;5090758;27;20474;-77
2022/12/05 06:18:46;;;;;;;13.80;9.50;;;3.00;99.90;;;;;;5094610;28;20474;-76
2022/12/05 06:21:13;;;;;;;12.37;8.70;;;2.90;99.90;;;;;;5087162;28;21049;-76
2022/12/05 06:23:40;;;;;;;12.87;9.07;;;2.80;99.90;;;;;;5094839;28;20498;-77
2022/12/05 06:26:11;;;;;;;15.53;11.23;;;2.90;99.90;;;;;;5089275;28;20470;-76
2022/12/05 06:28:38;;;;;;;15.87;10.70;;;3.00;99.90;;;;;;5084860;28;20575;-77
2022/12/05 06:31:08;;;;;;;12.53;9.67;;;3.00;99.90;;;;;;5094856;27;20873;-76
2022/12/05 06:33:37;;;;;;;13.60;9.50;;;3.00;99.90;;;;;;5087539;28;20454;-76
2022/12/05 06:36:06;;;;;;;17.80;10.40;;;3.10;99.90;;;;;;5095065;27;20523;-76
2022/12/05 06:38:34;;;;;;;16.87;10.20;;;3.00;99.90;;;;;;5085976;27;20497;-76
2022/12/05 06:41:04;;;;;;;17.27;11.10;;;2.80;99.90;;;;;;5095041;27;20579;-76
2022/12/05 06:43:31;;;;;;;30.63;21.00;;;2.90;99.90;;;;;;5095911;27;20490;-76
2022/12/05 06:45:57;;;;;;;14.97;10.67;;;2.90;99.90;;;;;;5095147;28;20498;-77
2022/12/05 06:48:24;;;;;;;13.93;10.23;;;2.80;99.90;;;;;;5093937;28;20478;-76
2022/12/05 06:50:53;;;;;;;19.60;13.40;;;2.70;99.90;;;;;;5094025;27;20840;-77
2022/12/05 06:53:20;;;;;;;26.90;18.30;;;2.70;99.90;;;;;;5095459;28;20542;-77
2022/12/05 06:55:55;;;;;;;24.90;18.47;;;2.80;99.90;;;;;;5099028;27;20893;-77
2022/12/05 06:58:22;;;;;;;21.60;15.33;;;2.80;99.90;;;;;;5090883;28;20550;-77
2022/12/05 07:03:34;;;;;;;17.07;13.40;;;2.80;99.90;;;;;;5092127;28;20466;-77
2022/12/05 07:06:02;;;;;;;16.93;12.20;;;2.80;99.90;;;;;;5089229;27;20957;-77
2022/12/05 07:08:29;;;;;;;16.33;11.40;;;2.70;99.90;;;;;;5083073;27;20467;-77
2022/12/05 07:10:56;;;;;;;19.43;13.37;;;2.80;99.90;;;;;;5087291;28;20493;-76
2022/12/05 07:13:23;;;;;;;16.73;10.90;;;2.80;99.90;;;;;;5092329;28;20478;-76
2022/12/05 07:15:51;;;;;;;18.67;12.40;;;2.80;99.90;;;;;;5087214;28;21012;-76
2022/12/05 07:18:18;;;;;;;14.83;10.17;;;2.70;99.90;;;;;;5084839;27;20458;-77
2022/12/05 07:20:45;;;;;;;15.50;11.40;;;2.70;99.90;;;;;;5091912;28;20588;-77
2022/12/05 07:23:13;;;;;;;15.93;11.53;;;2.70;99.90;;;;;;5091030;28;20511;-76
2022/12/05 07:25:41;;;;;;;15.80;9.93;;;2.60;99.90;;;;;;5087841;27;20486;-76
2022/12/05 07:28:08;;;;;;;17.83;12.20;;;2.50;99.90;;;;;;5093423;28;20980;-76
2022/12/05 07:30:35;;;;;;;25.13;18.53;;;2.60;99.90;;;;;;5087358;28;20470;-75
2022/12/05 07:33:03;;;;;;;20.53;15.10;;;2.60;99.90;;;;;;5089048;28;20535;-76
2022/12/05 07:35:30;;;;;;;18.30;10.73;;;2.70;99.90;;;;;;5089369;27;20478;-76
2022/12/05 07:37:57;;;;;;;21.33;12.20;;;2.80;99.90;;;;;;5093947;28;20481;-76
2022/12/05 07:40:25;;;;;;;24.10;12.60;;;2.80;99.90;;;;;;5089009;28;20455;-76
2022/12/05 07:42:53;;;;;;;16.50;11.53;;;2.70;99.90;;;;;;5086966;28;20577;-76
2022/12/05 07:45:20;;;;;;;20.13;10.53;;;2.70;99.90;;;;;;5084930;28;20732;-76
2022/12/05 07:47:47;;;;;;;14.60;11.00;;;2.70;99.90;;;;;;5090847;28;20450;-76
2022/12/05 07:50:15;;;;;;;24.07;12.27;;;2.70;99.90;;;;;;5086803;28;20937;-76
2022/12/05 07:52:42;;;;;;;13.57;11.33;;;2.80;99.90;;;;;;5089787;28;20502;-76
2022/12/05 07:55:09;;;;;;;14.17;10.90;;;2.80;99.90;;;;;;5085686;28;20486;-76
2022/12/05 07:57:37;;;;;;;17.80;13.10;;;2.90;99.90;;;;;;5089059;28;20462;-76
2022/12/05 08:00:05;;;;;;;22.03;10.97;;;3.00;99.90;;;;;;5087772;28;20446;-76
2022/12/05 08:02:33;;;;;;;15.37;10.83;;;3.10;99.90;;;;;;5092910;28;20513;-76
2022/12/05 08:05:00;;;;;;;25.67;13.83;;;3.20;99.90;;;;;;5088132;28;20490;-76
2022/12/05 08:07:27;;;;;;;21.67;13.53;;;3.30;99.90;;;;;;5093645;28;21152;-76
2022/12/05 08:09:53;;;;;;;17.50;11.33;;;3.20;99.90;;;;;;5095823;28;20462;-76
2022/12/05 08:12:20;;;;;;;18.07;10.80;;;3.20;99.90;;;;;;5088960;28;20969;-76
2022/12/05 08:14:49;;;;;;;18.10;10.87;;;3.10;99.90;;;;;;5096838;28;20559;-76
2022/12/05 08:17:16;;;;;;;24.77;13.57;;;3.10;99.90;;;;;;5084252;28;20544;-77
2022/12/05 08:19:43;;;;;;;15.33;9.67;;;3.10;99.90;;;;;;5084641;28;20465;-77
2022/12/05 08:22:10;;;;;;;15.97;10.60;;;3.10;99.90;;;;;;5088579;28;20478;-77
2022/12/05 08:24:37;;;;;;;15.97;11.13;;;3.20;99.90;;;;;;5090423;28;20497;-77
2022/12/05 08:27:05;;;;;;;20.40;13.60;;;3.20;99.90;;;;;;5087012;28;20952;-77
2022/12/05 08:29:31;;;;;;;21.40;14.23;;;3.20;99.90;;;;;;5081519;28;20587;-77
2022/12/05 08:32:00;;;;;;;20.47;13.83;;;3.20;99.90;;;;;;5086358;28;20482;-77
2022/12/05 08:34:27;;;;;;;19.23;13.80;;;3.20;99.90;;;;;;5092216;28;20481;-77
2022/12/05 08:36:54;;;;;;;22.07;13.77;;;3.30;99.90;;;;;;5083425;28;20535;-77
2022/12/05 08:39:20;;;;;;;19.63;14.13;;;3.40;99.90;;;;;;5081696;28;20490;-77
2022/12/05 08:41:48;;;;;;;18.97;13.37;;;3.50;99.90;;;;;;5084082;28;20521;-77
2022/12/05 08:44:17;;;;;;;15.23;11.73;;;3.50;99.90;;;;;;5084420;28;20873;-77
2022/12/05 08:46:45;;;;;;;23.77;14.40;;;3.60;99.90;;;;;;5087130;28;20457;-77
2022/12/05 08:49:15;;;;;;;18.00;12.23;;;3.50;99.90;;;;;;5100130;28;20497;-77
2022/12/05 08:51:43;;;;;;;23.10;11.70;;;3.50;99.90;;;;;;5085455;28;20471;-77
2022/12/05 08:54:11;;;;;;;33.17;15.57;;;3.40;99.90;;;;;;5084098;28;20930;-77
2022/12/05 08:56:38;;;;;;;19.10;14.00;;;3.30;99.90;;;;;;5082662;28;20459;-77
2022/12/05 08:59:06;;;;;;;20.90;13.87;;;3.50;99.90;;;;;;5084650;28;20530;-77
2022/12/05 09:01:37;;;;;;;20.00;14.10;;;3.40;99.90;;;;;;5082906;28;20540;-77
2022/12/05 09:04:05;;;;;;;21.50;14.53;;;3.30;99.90;;;;;;5087194;28;20461;-77
2022/12/05 09:06:34;;;;;;;25.10;12.90;;;3.20;99.90;;;;;;5083705;28;20470;-77
2022/12/05 09:09:03;;;;;;;20.83;12.63;;;3.20;99.90;;;;;;5086786;28;20454;-77
2022/12/05 09:11:33;;;;;;;17.70;14.40;;;3.20;99.90;;;;;;5094683;27;20454;-77
2022/12/05 09:14:01;;;;;;;23.47;13.13;;;3.30;99.90;;;;;;5087051;28;20466;-77
2022/12/05 09:16:30;;;;;;;20.40;13.40;;;3.30;99.90;;;;;;5090535;28;20531;-77
2022/12/05 09:18:58;;;;;;;20.00;12.93;;;3.10;99.90;;;;;;5090772;28;20524;-76
2022/12/05 09:21:26;;;;;;;20.30;13.27;;;3.20;99.90;;;;;;5089657;28;20497;-77
2022/12/05 09:23:55;;;;;;;19.40;12.57;;;3.40;99.90;;;;;;5092656;28;20544;-77
2022/12/05 09:26:23;;;;;;;19.97;14.07;;;3.50;99.90;;;;;;5086163;28;20532;-78
2022/12/05 09:28:51;;;;;;;21.43;14.87;;;3.40;99.90;;;;;;5097460;28;20513;-76
2022/12/05 09:31:21;;;;;;;19.73;11.93;;;3.30;99.90;;;;;;5097413;28;20473;-76
2022/12/05 09:33:49;;;;;;;21.10;13.90;;;3.40;99.90;;;;;;5096982;28;20471;-76
2022/12/05 09:36:19;;;;;;;16.97;12.43;;;3.40;99.90;;;;;;5086500;28;20490;-76
2022/12/05 09:38:46;;;;;;;19.40;14.23;;;3.50;99.90;;;;;;5086672;28;20527;-76
2022/12/05 09:42:03;;;;;;;22.43;13.60;;;3.50;99.90;;;;;;5100650;28;20478;-76
2022/12/05 09:44:22;;;;;;;21.83;13.73;;;3.40;99.90;;;;;;5096709;28;20458;-77
2022/12/05 09:46:55;;;;;;;27.30;14.67;;;3.40;99.90;;;;;;5085807;28;20470;-77
2022/12/05 09:49:24;;;;;;;25.50;14.50;;;3.50;99.90;;;;;;5086507;28;20567;-77
2022/12/05 09:51:52;;;;;;;25.73;16.70;;;3.70;99.90;;;;;;5091900;28;20893;-77
2022/12/05 09:54:19;;;;;;;25.13;14.70;;;3.80;99.90;;;;;;5090175;28;20486;-77
2022/12/05 09:56:50;;;;;;;21.07;15.83;;;3.70;99.90;;;;;;5086124;28;20543;-77
2022/12/05 09:59:19;;;;;;;24.60;15.50;;;3.70;99.90;;;;;;5093135;28;20483;-77
2022/12/05 10:01:52;;;;;;;22.47;12.83;;;3.70;99.90;;;;;;5090512;28;21153;-76
2022/12/05 10:04:45;;;;;;;27.03;16.00;;;3.80;99.90;;;;;;5092660;28;20516;-76
2022/12/05 10:07:17;;;;;;;19.83;12.03;;;3.80;99.90;;;;;;5089534;28;20882;-76
2022/12/05 10:09:56;;;;;;;14.77;11.37;;;3.60;99.90;;;;;;5088831;27;20906;-76
2022/12/05 10:12:41;;;;;;;14.30;8.97;;;3.50;99.90;;;;;;5095084;28;20479;-76
2022/12/05 10:15:15;;;;;;;16.00;8.47;;;3.30;99.90;;;;;;5101987;28;20472;-76
2022/12/05 10:17:46;;;;;;;14.60;9.90;;;3.30;99.90;;;;;;5099968;28;20545;-76
2022/12/05 10:20:19;;;;;;;22.27;10.83;;;3.30;99.90;;;;;;5104369;28;20449;-76
2022/12/05 10:22:52;;;;;;;13.17;9.47;;;3.30;99.90;;;;;;5099892;28;20962;-76
2022/12/05 10:25:22;;;;;;;14.63;9.10;;;3.20;99.90;;;;;;5106483;28;20489;-76
2022/12/05 10:27:52;;;;;;;13.37;10.17;;;3.20;99.90;;;;;;5092537;28;20490;-76
2022/12/05 10:30:21;;;;;;;15.60;10.43;;;3.20;99.90;;;;;;5095485;28;20478;-76
2022/12/05 10:32:53;;;;;;;13.70;9.87;;;3.20;99.90;;;;;;5086213;28;20603;-76
2022/12/05 10:35:23;;;;;;;13.80;9.60;;;3.20;99.90;;;;;;5091363;28;20942;-77
2022/12/05 10:37:52;;;;;;;12.13;10.43;;;3.20;99.90;;;;;;5085638;28;20462;-76
2022/12/05 10:40:20;;;;;;;12.33;8.90;;;3.20;99.90;;;;;;5088778;28;20551;-77
2022/12/05 10:42:48;;;;;;;14.87;8.03;;;3.40;99.90;;;;;;5086243;28;20560;-76
2022/12/05 10:45:20;;;;;;;17.17;9.47;;;3.50;99.90;;;;;;5085871;28;20515;-77
2022/12/05 10:47:49;;;;;;;11.43;7.20;;;3.60;99.90;;;;;;5085964;28;20467;-77
2022/12/05 10:50:25;;;;;;;12.63;7.87;;;3.60;99.90;;;;;;5086876;28;20922;-76
2022/12/05 10:52:54;;;;;;;11.37;9.00;;;3.70;99.90;;;;;;5086770;28;20481;-77
2022/12/05 10:55:21;;;;;;;11.20;7.00;;;3.70;99.90;;;;;;5086277;28;20564;-77
2022/12/05 10:57:51;;;;;;;15.37;7.60;;;3.80;99.90;;;;;;5093087;28;20455;-77
2022/12/05 11:00:30;;;;;;;15.63;8.53;;;3.70;99.90;;;;;;5086604;28;20458;-76
2022/12/05 11:02:57;;;;;;;12.70;7.67;;;3.70;99.90;;;;;;5085596;28;20482;-76
2022/12/05 11:05:29;;;;;;;11.70;6.80;;;3.70;99.90;;;;;;5086995;28;20519;-77
2022/12/05 11:07:58;;;;;;;11.53;6.80;;;3.60;99.90;;;;;;5092125;28;20615;-76
2022/12/05 11:10:29;;;;;;;10.87;7.67;;;3.60;99.90;;;;;;5083239;28;20517;-76
2022/12/05 11:12:58;;;;;;;13.27;7.70;;;3.60;99.90;;;;;;5094503;28;20514;-76
2022/12/05 11:15:28;;;;;;;15.00;7.00;;;3.60;99.90;;;;;;5092658;28;20490;-77
2022/12/05 11:17:57;;;;;;;11.83;7.30;;;3.70;99.90;;;;;;5089931;28;20516;-76
2022/12/05 11:20:39;;;;;;;15.97;7.83;;;3.80;99.90;;;;;;5088758;28;20458;-77
2022/12/05 11:23:24;;;;;;;15.67;6.53;;;3.80;99.90;;;;;;5090192;28;20549;-76
2022/12/05 11:25:52;;;;;;;10.47;6.90;;;3.90;99.90;;;;;;5093588;27;21649;-76
2022/12/05 11:28:31;;;;;;;15.40;8.40;;;3.90;99.90;;;;;;5090808;28;20988;-76
2022/12/05 11:31:01;;;;;;;10.97;8.37;;;3.80;99.90;;;;;;5084494;28;20890;-76
2022/12/05 11:33:30;;;;;;;13.90;7.83;;;3.90;99.90;;;;;;5085779;28;20470;-76
2022/12/05 11:36:02;;;;;;;10.00;5.90;;;3.90;99.90;;;;;;5091371;28;20483;-77
2022/12/05 11:38:31;;;;;;;10.63;6.20;;;4.00;99.90;;;;;;5094673;27;20538;-77
2022/12/05 11:41:18;;;;;;;11.13;6.07;;;4.00;99.90;;;;;;5104717;27;20523;-77
2022/12/05 11:44:09;;;;;;;6.43;5.27;;;4.00;99.90;;;;;;5098560;28;20517;-77
2022/12/05 11:46:46;;;;;;;7.40;5.60;;;4.00;99.90;;;;;;5098153;28;20530;-77
2022/12/05 11:49:31;;;;;;;9.70;6.57;;;4.20;99.90;;;;;;5091862;28;21162;-76
2022/12/05 11:52:06;;;;;;;11.80;7.07;;;4.20;99.90;;;;;;5086732;28;20520;-76
2022/12/05 11:54:54;;;;;;;10.80;8.70;;;4.40;99.90;;;;;;5100716;28;20494;-76
2022/12/05 11:57:32;;;;;;;13.53;5.97;;;4.50;99.90;;;;;;5084620;28;20460;-76
2022/12/05 12:00:19;;;;;;;5.87;4.90;;;4.60;99.90;;;;;;5095855;28;20485;-76
2022/12/05 12:03:04;;;;;;;8.60;6.00;;;4.60;99.90;;;;;;5095160;28;20887;-76
2022/12/05 12:05:38;;;;;;;9.90;7.47;;;4.60;99.90;;;;;;5093881;28;20477;-76
2022/12/05 12:08:18;;;;;;;8.90;6.47;;;4.80;99.90;;;;;;5092978;28;20447;-76
2022/12/05 12:10:55;;;;;;;8.33;7.53;;;4.60;99.90;;;;;;5093798;28;21368;-77
2022/12/05 12:13:41;;;;;;;8.50;6.17;;;4.60;99.90;;;;;;5095635;28;20982;-76
2022/12/05 12:16:15;;;;;;;6.80;5.00;;;4.60;99.90;;;;;;5084906;28;20540;-77
2022/12/05 12:19:00;;;;;;;8.83;7.10;;;4.60;99.90;;;;;;5085165;28;21117;-77
2022/12/05 12:21:34;;;;;;;8.13;5.77;;;4.40;99.90;;;;;;5086656;28;21039;-76
2022/12/05 12:24:11;;;;;;;9.67;6.90;;;4.50;99.90;;;;;;5086205;28;20547;-77
2022/12/05 12:26:46;;;;;;;11.17;7.70;;;4.50;99.90;;;;;;5083839;28;20486;-77
2022/12/05 12:29:27;;;;;;;12.17;5.77;;;4.40;99.90;;;;;;5089493;28;21383;-77
2022/12/05 12:32:13;;;;;;;6.37;4.97;;;4.40;99.90;;;;;;5089580;28;20555;-77
2022/12/05 12:35:17;;;;;;;10.10;6.93;;;4.40;99.90;;;;;;5090592;28;20462;-77
2022/12/05 12:37:52;;;;;;;7.63;5.43;;;4.40;99.90;;;;;;5083837;28;20513;-77
2022/12/05 12:40:22;;;;;;;6.70;4.90;;;4.40;99.90;;;;;;5087760;28;20458;-77
2022/12/05 12:43:04;;;;;;;8.00;4.97;;;4.40;99.90;;;;;;5092151;28;20933;-77
2022/12/05 12:45:51;;;;;;;10.10;5.73;;;4.40;99.90;;;;;;5095681;28;20471;-77
2022/12/05 12:48:36;;;;;;;7.27;4.93;;;4.40;99.90;;;;;;5096087;28;20550;-77
2022/12/05 12:51:04;;;;;;;7.97;4.80;;;4.30;99.90;;;;;;5096909;28;20478;-77
2022/12/05 12:54:04;;;;;;;6.10;4.70;;;4.30;99.90;;;;;;5097130;28;20481;-77
2022/12/05 12:56:38;;;;;;;10.43;5.40;;;4.30;99.90;;;;;;5095746;28;20458;-75
2022/12/05 12:59:21;;;;;;;12.00;8.77;;;4.30;99.90;;;;;;5089722;28;20512;-76
2022/12/05 13:01:58;;;;;;;9.17;5.70;;;4.30;99.90;;;;;;5088728;28;20948;-77
2022/12/05 13:04:29;;;;;;;6.97;6.27;;;4.30;99.90;;;;;;5066639;28;20549;-77
2022/12/05 13:07:03;;;;;;;9.00;4.80;;;4.20;99.90;;;;;;5070002;28;20519;-76
2022/12/05 13:09:34;;;;;;;8.63;5.97;;;4.30;99.90;;;;;;5074082;28;20495;-76